Time;durP1;ratioP1;P1;durP2;ratioP2;P2;SDS_P1;SDS_P2;PMS_P1;PMS_P2;Temp;Humidity;BMP_temperature;BMP_pressure;BME280_temperature;BME280_humidity;BME280_pressure;Samples;Min_cycle;Max_cycle;Signal;HPM_P1;HPM_P2
2022/06/16 00:00:04;;;;;;;15.73;8.07;;;;;;;18.43;74.56;93022.53;4772489;30;20067;-75
2022/06/16 00:02:39;;;;;;;12.95;7.38;;;;;;;18.40;74.75;93023.19;4792087;29;20126;-75
2022/06/16 00:05:06;;;;;;;12.70;7.57;;;;;;;18.38;74.88;93020.06;4804412;29;20463;-75
2022/06/16 00:07:31;;;;;;;17.63;8.23;;;;;;;18.33;76.33;93003.56;4788415;29;20091;-75
2022/06/16 00:09:57;;;;;;;13.73;9.10;;;;;;;18.27;76.25;92995.03;4804537;29;20042;-74
2022/06/16 00:12:22;;;;;;;14.55;8.65;;;;;;;18.28;76.34;93005.34;4788086;29;20046;-75
2022/06/16 00:14:48;;;;;;;17.35;8.48;;;;;;;18.27;76.16;93000.34;4788107;29;20031;-75
2022/06/16 00:17:14;;;;;;;15.45;8.50;;;;;;;18.26;76.55;92998.78;4804385;29;20058;-75
2022/06/16 00:19:39;;;;;;;12.30;9.07;;;;;;;18.26;76.70;92996.94;4804174;29;20096;-74
2022/06/16 00:22:05;;;;;;;13.25;8.77;;;;;;;18.27;76.50;92998.47;4787939;29;20026;-75
2022/06/16 00:24:30;;;;;;;14.93;9.30;;;;;;;18.26;76.87;92985.53;4788001;29;20047;-75
2022/06/16 00:26:57;;;;;;;13.98;9.40;;;;;;;18.26;76.60;92985.53;4803816;29;20328;-75
2022/06/16 00:29:24;;;;;;;11.73;8.48;;;;;;;18.26;76.41;92988.19;4803782;29;20042;-75
2022/06/16 00:31:50;;;;;;;17.10;9.07;;;;;;;18.26;76.10;92990.81;4789657;29;20051;-75
2022/06/16 00:34:15;;;;;;;16.17;9.23;;;;;;;18.25;76.87;92984.75;4785573;29;20047;-75
2022/06/16 00:36:41;;;;;;;17.38;8.63;;;;;;;18.25;76.52;92984.75;4785770;30;20042;-75
2022/06/16 00:39:07;;;;;;;15.23;8.80;;;;;;;18.25;76.22;92987.41;4769756;30;20134;-75
2022/06/16 00:41:33;;;;;;;16.05;9.18;;;;;;;18.26;76.25;92983.69;4769591;30;20027;-75
2022/06/16 00:44:12;;;;;;;13.63;8.60;;;;;;;18.27;75.82;92979.16;4790346;29;20046;-75
2022/06/16 00:46:38;;;;;;;13.07;8.15;;;;;;;18.30;75.74;92983.78;4802374;29;20050;-75
2022/06/16 00:49:12;;;;;;;13.77;8.63;;;;;;;18.29;75.82;92979.59;4797534;29;20039;-75
2022/06/16 00:51:50;;;;;;;14.77;8.85;;;;;;;18.30;75.76;92981.16;4786026;29;20047;-75
2022/06/16 00:54:34;;;;;;;15.57;8.45;;;;;;;18.30;75.42;92970.53;4788854;29;20039;-75
2022/06/16 00:57:08;;;;;;;14.63;8.13;;;;;;;18.28;75.60;92967.44;4772695;30;20048;-75
2022/06/16 00:59:36;;;;;;;14.00;8.75;;;;;;;18.25;75.75;92968.84;4788648;29;20051;-75
2022/06/16 01:02:05;;;;;;;14.25;8.77;;;;;;;18.26;75.53;92964.34;4787600;30;20453;-75
2022/06/16 01:07:16;;;;;;;22.90;8.95;;;;;;;18.25;76.01;92952.19;4788870;30;20290;-75
2022/06/16 01:09:43;;;;;;;16.25;8.63;;;;;;;18.23;76.23;92954.38;4788630;30;20042;-75
2022/06/16 01:15:49;;;;;;;17.40;8.82;;;;;;;18.19;76.89;92950.81;4788502;29;20039;-75
2022/06/16 01:18:14;;;;;;;14.77;8.75;;;;;;;18.18;76.63;92944.75;4788799;30;20035;-75
2022/06/16 01:20:48;;;;;;;18.00;9.50;;;;;;;18.18;77.71;92936.03;4788523;30;20054;-75
2022/06/16 01:23:44;;;;;;;18.45;9.40;;;;;;;18.17;77.59;92934.47;4786924;30;20039;-75
2022/06/16 01:26:16;;;;;;;18.90;9.88;;;;;;;18.15;78.01;92926.06;4788422;30;20043;-75
2022/06/16 01:29:13;;;;;;;15.70;9.15;;;;;;;18.13;77.33;92917.69;4772143;30;20119;-75
2022/06/16 01:31:59;;;;;;;12.93;8.98;;;;;;;18.12;77.01;92914.25;4772176;30;20521;-75
2022/06/16 01:34:43;;;;;;;13.85;8.10;;;;;;;18.09;76.93;92912.25;4772045;30;20507;-75
2022/06/16 01:37:12;;;;;;;11.15;8.20;;;;;;;18.04;76.69;92910.56;4772140;30;20074;-75
2022/06/16 01:40:15;;;;;;;14.57;8.43;;;;;;;18.02;76.41;92912.00;4771978;30;20511;-75
2022/06/16 01:42:49;;;;;;;;;;;;;;;18.02;75.90;92917.28;4780809;29;20509;-75
2022/06/16 01:45:25;;;;;;;11.43;8.15;;;;;;;18.02;75.32;92923.34;4789604;29;19917;-75
2022/06/16 01:47:52;;;;;;;16.02;7.78;;;;;;;18.02;74.81;92910.09;4789877;29;20268;-75
2022/06/16 01:50:29;;;;;;;12.15;7.38;;;;;;;18.00;74.36;92912.28;4789795;29;20046;-75
2022/06/16 01:53:01;;;;;;;13.00;7.50;;;;;;;17.98;74.07;92913.72;4796175;29;20054;-75
2022/06/16 01:55:34;;;;;;;13.75;7.38;;;;;;;17.95;73.93;92901.91;4789536;29;20050;-75
2022/06/16 01:58:08;;;;;;;16.75;7.07;;;;;;;17.94;73.59;92905.63;4786525;30;20050;-75
2022/06/16 02:00:34;;;;;;;15.23;7.22;;;;;;;17.94;73.09;92900.34;4786516;29;20043;-75
2022/06/16 02:03:27;;;;;;;10.65;6.80;;;;;;;17.90;72.99;92894.16;4756818;30;20066;-75
2022/06/16 02:05:58;;;;;;;14.50;6.97;;;;;;;17.87;73.05;92892.91;4787710;30;20085;-75
2022/06/16 02:08:39;;;;;;;11.98;7.00;;;;;;;17.86;72.82;92880.00;4788025;30;20039;-75
2022/06/16 02:11:27;;;;;;;13.77;7.00;;;;;;;17.83;72.45;92870.03;4771464;30;20035;-75
2022/06/16 02:13:58;;;;;;;13.35;7.00;;;;;;;17.76;72.38;92873.16;4799869;29;20058;-75
2022/06/16 02:16:31;;;;;;;14.18;6.65;;;;;;;17.72;72.46;92884.72;4804313;29;20042;-76
2022/06/16 02:19:00;;;;;;;15.98;7.13;;;;;;;17.69;72.33;92891.41;4803988;29;20326;-75
2022/06/16 02:21:43;;;;;;;12.57;7.00;;;;;;;17.68;72.26;92890.66;4773221;30;20027;-75
2022/06/16 02:24:13;;;;;;;12.18;6.40;;;;;;;17.68;72.32;92893.31;4786343;30;20035;-75
2022/06/16 02:26:39;;;;;;;12.05;6.65;;;;;;;17.69;71.88;92894.06;4786247;30;20100;-75
2022/06/16 02:29:30;;;;;;;15.88;6.72;;;;;;;17.63;72.85;92892.69;4796095;29;20035;-75
2022/06/16 02:32:19;;;;;;;12.63;6.85;;;;;;;17.59;72.67;92889.94;4803510;29;20046;-75
2022/06/16 02:35:04;;;;;;;13.52;6.78;;;;;;;17.58;72.57;92888.34;4793767;29;20043;-75
2022/06/16 02:37:36;;;;;;;12.70;6.93;;;;;;;17.58;72.45;92882.28;4787285;30;20506;-75
2022/06/16 02:40:25;;;;;;;14.07;6.75;;;;;;;17.56;72.60;92876.53;4794061;29;20050;-74
2022/06/16 02:43:15;;;;;;;12.13;6.40;;;;;;;17.56;72.71;92887.94;4785054;29;20374;-75
2022/06/16 02:45:54;;;;;;;11.32;6.78;;;;;;;17.56;72.57;92889.78;4789537;29;20050;-74
2022/06/16 02:48:39;;;;;;;13.02;6.78;;;;;;;17.52;72.44;92889.66;4786476;29;20486;-78
2022/06/16 02:51:13;;;;;;;14.85;7.50;;;;;;;17.53;72.48;92883.25;4778042;30;20105;-75
2022/06/16 02:54:20;;;;;;;11.57;6.70;;;;;;;17.57;72.19;92881.53;4770700;30;20418;-75
2022/06/16 02:56:49;;;;;;;13.10;6.30;;;;;;;17.58;71.82;92872.47;4785087;30;20126;-75
2022/06/16 02:59:38;;;;;;;11.25;6.00;;;;;;;17.58;71.74;92867.19;4758177;29;20078;-74
2022/06/16 03:02:11;;;;;;;12.32;6.35;;;;;;;17.59;71.23;92871.41;4770041;30;20046;-76
2022/06/16 03:04:43;;;;;;;8.75;5.53;;;;;;;17.59;71.36;92878.56;4786732;29;20039;-74
2022/06/16 03:07:14;;;;;;;11.57;6.10;;;;;;;17.58;71.26;92883.06;4806635;29;20047;-73
2022/06/16 03:09:41;;;;;;;14.65;6.80;;;;;;;17.60;71.27;92880.09;4801906;29;20054;-73
2022/06/16 03:12:08;;;;;;;15.07;6.63;;;;;;;17.58;71.24;92875.13;4803268;29;20066;-75
2022/06/16 03:14:36;;;;;;;13.15;6.40;;;;;;;17.58;71.70;92871.72;4802658;29;20409;-73
2022/06/16 03:17:03;;;;;;;14.43;7.10;;;;;;;17.57;71.56;92870.16;4803586;29;20103;-73
2022/06/16 03:19:33;;;;;;;9.93;6.40;;;;;;;17.55;71.51;92872.34;4788512;29;20034;-73
2022/06/16 03:21:59;;;;;;;12.13;6.45;;;;;;;17.53;71.81;92871.91;4806081;29;20049;-74
2022/06/16 03:24:26;;;;;;;16.85;7.45;;;;;;;17.50;71.58;92875.19;4821249;29;20455;-73
2022/06/16 03:26:54;;;;;;;13.48;6.68;;;;;;;17.47;71.59;92873.94;4821527;29;20042;-73
2022/06/16 03:29:23;;;;;;;12.80;6.35;;;;;;;17.44;71.66;92871.94;4821500;29;20535;-74
2022/06/16 03:31:49;;;;;;;16.58;6.35;;;;;;;17.44;71.79;92866.63;4791397;29;20451;-73
2022/06/16 03:34:14;;;;;;;10.80;6.32;;;;;;;17.41;72.17;92865.41;4821231;29;20091;-73
2022/06/16 03:36:40;;;;;;;12.23;6.07;;;;;;;17.38;72.18;92866.06;4791386;29;20099;-73
2022/06/16 03:39:15;;;;;;;16.00;5.72;;;;;;;17.38;71.67;92862.63;4821292;29;20069;-73
2022/06/16 03:41:47;;;;;;;11.98;5.90;;;;;;;17.38;71.09;92857.31;4806002;29;20046;-73
2022/06/16 03:44:14;;;;;;;12.52;6.38;;;;;;;17.39;71.07;92870.25;4821122;29;20039;-73
2022/06/16 03:46:40;;;;;;;13.75;5.68;;;;;;;17.35;71.14;92874.63;4791699;29;20034;-73
2022/06/16 03:49:11;;;;;;;14.60;6.13;;;;;;;17.32;71.33;92871.84;4821297;29;20050;-73
2022/06/16 03:51:48;;;;;;;10.02;6.25;;;;;;;17.31;71.10;92870.28;4792648;29;20065;-73
2022/06/16 03:54:19;;;;;;;16.77;6.00;;;;;;;17.30;71.17;92868.75;4821337;29;20054;-73
2022/06/16 03:56:45;;;;;;;11.68;6.30;;;;;;;17.31;70.90;92865.00;4821497;29;20762;-73
2022/06/16 03:59:15;;;;;;;15.30;6.43;;;;;;;17.34;70.92;92877.56;4791557;29;20030;-73
2022/06/16 04:01:41;;;;;;;18.20;5.88;;;;;;;17.35;70.39;92874.63;4818133;29;20062;-73
2022/06/16 04:04:08;;;;;;;9.88;5.25;;;;;;;17.34;70.42;92872.28;4817972;29;20101;-73
2022/06/16 04:06:45;;;;;;;12.40;5.18;;;;;;;17.30;70.21;92866.88;4818050;29;20039;-73
2022/06/16 04:09:11;;;;;;;10.57;5.40;;;;;;;17.28;69.97;92869.81;4818002;29;20099;-73
2022/06/16 04:11:37;;;;;;;14.30;5.75;;;;;;;17.26;70.50;92877.28;4787720;29;20047;-73
2022/06/16 04:14:09;;;;;;;8.63;5.15;;;;;;;17.22;70.88;92876.38;4817810;29;20062;-74
2022/06/16 04:16:46;;;;;;;10.68;5.50;;;;;;;17.20;71.10;92880.44;4803098;29;20077;-73
2022/06/16 04:19:21;;;;;;;7.90;5.22;;;;;;;17.17;71.36;92881.84;4802544;29;20525;-73
2022/06/16 04:21:49;;;;;;;13.35;6.45;;;;;;;17.15;72.55;92886.69;4817888;29;20076;-73
2022/06/16 04:24:22;;;;;;;11.45;6.22;;;;;;;17.16;73.34;92882.94;4802606;29;20512;-73
2022/06/16 04:26:51;;;;;;;12.70;5.63;;;;;;;17.15;73.37;92891.97;4804994;29;20456;-73
2022/06/16 04:29:18;;;;;;;12.15;6.15;;;;;;;17.13;73.77;92896.78;4821292;29;20037;-73
2022/06/16 04:31:45;;;;;;;11.80;6.40;;;;;;;17.10;74.37;92894.03;4821173;29;20120;-73
2022/06/16 04:34:12;;;;;;;13.68;6.38;;;;;;;17.11;74.58;92891.03;4821074;29;20051;-73
2022/06/16 04:36:40;;;;;;;12.10;6.50;;;;;;;17.11;74.77;92896.34;4807316;29;20035;-74
2022/06/16 04:39:11;;;;;;;10.75;6.47;;;;;;;17.12;74.33;92889.19;4821083;29;20077;-73
2022/06/16 04:41:41;;;;;;;13.95;6.25;;;;;;;17.12;73.97;92895.25;4791493;29;20046;-73
2022/06/16 04:44:09;;;;;;;13.18;5.47;;;;;;;17.14;73.73;92895.72;4820997;29;20259;-74
2022/06/16 04:46:36;;;;;;;8.98;5.45;;;;;;;17.14;73.53;92895.72;4820879;29;20129;-73
2022/06/16 04:49:04;;;;;;;9.15;5.38;;;;;;;17.17;73.46;92892.44;4792261;29;20172;-73
2022/06/16 04:51:36;;;;;;;10.20;5.80;;;;;;;17.18;73.94;92901.94;4820843;29;20081;-74
2022/06/16 04:54:02;;;;;;;9.30;5.88;;;;;;;17.25;74.06;92896.91;4820878;29;20071;-74
2022/06/16 04:56:46;;;;;;;12.82;6.88;;;;;;;17.35;74.46;92897.66;4807313;29;20087;-73
2022/06/16 04:59:38;;;;;;;13.73;6.22;;;;;;;17.45;73.74;92902.59;4804714;29;20588;-73
2022/06/16 05:02:24;;;;;;;13.25;6.50;;;;;;;17.55;73.33;92898.81;4806394;29;20468;-73
2022/06/16 05:05:15;;;;;;;11.02;6.32;;;;;;;17.65;72.87;92906.38;4778673;29;20137;-73
2022/06/16 05:07:55;;;;;;;14.55;6.15;;;;;;;17.75;73.20;92911.34;4805600;29;20182;-73
2022/06/16 05:10:38;;;;;;;12.35;6.35;;;;;;;17.87;73.05;92916.72;4790288;29;20054;-73
2022/06/16 05:13:26;;;;;;;11.77;6.32;;;;;;;18.02;72.82;92901.38;4801372;29;20622;-73
2022/06/16 05:16:10;;;;;;;11.85;6.53;;;;;;;18.17;72.22;92907.97;4806027;29;20430;-73
2022/06/16 05:19:11;;;;;;;17.67;6.20;;;;;;;18.33;71.58;92905.53;4743348;30;20530;-73
2022/06/16 05:21:46;;;;;;;11.48;6.43;;;;;;;18.46;71.38;92905.28;4780228;29;20525;-74
2022/06/16 05:24:27;;;;;;;14.60;6.43;;;;;;;18.57;71.70;92900.34;4792002;29;20540;-73
2022/06/16 05:27:15;;;;;;;13.82;6.88;;;;;;;18.68;72.68;92896.19;4805160;29;20042;-74
2022/06/16 05:30:02;;;;;;;13.30;6.97;;;;;;;18.81;72.78;92897.03;4805938;29;20051;-73
2022/06/16 05:32:46;;;;;;;14.30;7.22;;;;;;;18.91;73.95;92891.31;4805287;29;20082;-74
2022/06/16 05:35:32;;;;;;;14.80;7.43;;;;;;;19.04;73.41;92894.78;4805944;29;20076;-73
2022/06/16 05:38:29;;;;;;;14.00;7.50;;;;;;;19.18;73.24;92899.75;4804309;29;20055;-73
2022/06/16 05:41:17;;;;;;;13.38;7.57;;;;;;;19.33;72.69;92896.47;4806082;29;20046;-74
2022/06/16 05:43:59;;;;;;;16.48;7.32;;;;;;;19.58;71.91;92896.50;4806216;29;20104;-73
2022/06/16 05:46:47;;;;;;;16.17;7.32;;;;;;;20.32;70.00;92901.75;4805835;29;20047;-74
2022/06/16 05:49:15;;;;;;;14.32;7.50;;;;;;;21.01;68.08;92897.19;4774853;29;20057;-74
2022/06/16 05:51:42;;;;;;;11.75;7.00;;;;;;;21.63;66.01;92892.28;4804660;29;20054;-74
2022/06/16 05:54:10;;;;;;;13.30;7.20;;;;;;;22.28;63.63;92896.41;4804903;29;20047;-74
2022/06/16 05:56:38;;;;;;;13.60;6.85;;;;;;;22.85;62.07;92897.53;4789741;29;20046;-74
2022/06/16 05:59:05;;;;;;;11.63;7.32;;;;;;;23.41;60.27;92905.03;4775339;29;20621;-74
2022/06/16 06:01:32;;;;;;;12.48;7.18;;;;;;;24.19;58.86;92914.66;4821143;29;20050;-74
2022/06/16 06:04:03;;;;;;;13.18;6.97;;;;;;;23.94;57.47;92922.34;4822977;29;20042;-75
2022/06/16 06:06:30;;;;;;;15.57;6.93;;;;;;;23.51;59.14;92916.25;4822683;29;20139;-74
2022/06/16 06:17:19;;;;;;;12.90;6.68;;;;;;;25.59;51.74;92924.34;4807608;29;20494;-74
2022/06/16 06:19:47;;;;;;;14.35;6.57;;;;;;;25.72;48.29;92918.34;4822688;29;20038;-75
2022/06/16 06:22:19;;;;;;;9.57;6.75;;;;;;;25.68;49.62;92916.75;4823824;29;20593;-74
2022/06/16 06:24:52;;;;;;;14.02;6.75;;;;;;;25.63;51.91;92917.13;4807397;29;20070;-74
2022/06/16 06:27:43;;;;;;;13.65;7.57;;;;;;;24.63;55.39;92925.59;4807321;29;20049;-74
2022/06/16 06:30:11;;;;;;;14.30;7.35;;;;;;;24.44;56.57;92921.13;4822584;29;20041;-74
2022/06/16 06:32:37;;;;;;;17.90;7.75;;;;;;;23.91;58.40;92918.44;4823529;29;20049;-74
2022/06/16 06:35:04;;;;;;;15.13;6.68;;;;;;;23.84;58.15;92921.03;4792062;29;20034;-74
2022/06/16 06:37:30;;;;;;;11.52;6.95;;;;;;;23.54;56.14;92913.66;4823469;29;20444;-74
2022/06/16 06:39:56;;;;;;;15.55;7.30;;;;;;;23.53;56.20;92912.13;4822597;29;20046;-75
2022/06/16 06:42:22;;;;;;;14.30;6.95;;;;;;;23.63;58.00;92908.06;4807218;29;20035;-74
2022/06/16 06:44:48;;;;;;;16.63;7.40;;;;;;;23.65;60.00;92911.16;4792007;29;20066;-74
2022/06/16 06:47:22;;;;;;;15.00;7.50;;;;;;;23.70;58.67;92900.94;4823745;29;20532;-74
2022/06/16 06:49:48;;;;;;;17.52;7.30;;;;;;;23.99;57.16;92900.63;4821336;29;20050;-74
2022/06/16 06:52:15;;;;;;;16.05;7.00;;;;;;;24.45;59.01;92897.81;4823143;29;20064;-74
2022/06/16 06:54:42;;;;;;;10.90;6.78;;;;;;;25.00;55.74;92894.66;4823182;29;20039;-75
2022/06/16 06:57:11;;;;;;;12.93;6.57;;;;;;;25.34;51.94;92898.09;4823458;29;20046;-74
2022/06/16 06:59:37;;;;;;;15.45;6.80;;;;;;;25.38;51.16;92893.53;4820736;29;20477;-75
2022/06/16 07:02:02;;;;;;;12.95;7.07;;;;;;;25.76;50.17;92894.25;4805140;29;20103;-75
2022/06/16 07:04:28;;;;;;;20.05;6.30;;;;;;;26.01;48.85;92896.34;4789025;29;20053;-74
2022/06/16 07:06:53;;;;;;;16.85;6.40;;;;;;;25.73;48.86;92903.00;4803400;29;20045;-75
2022/06/16 07:09:19;;;;;;;16.73;7.05;;;;;;;25.88;49.76;92899.34;4804680;29;20058;-74
2022/06/16 07:11:45;;;;;;;13.15;6.13;;;;;;;26.21;49.01;92911.06;4804607;29;20459;-75
2022/06/16 07:14:11;;;;;;;11.30;6.18;;;;;;;26.49;49.09;92907.00;4804918;29;20461;-75
2022/06/16 07:16:37;;;;;;;16.60;6.75;;;;;;;26.13;47.58;92912.16;4804584;29;20078;-75
2022/06/16 07:19:04;;;;;;;18.42;6.72;;;;;;;25.82;52.16;92919.56;4803278;29;20047;-75
2022/06/16 07:21:29;;;;;;;11.35;6.55;;;;;;;25.23;51.83;92918.66;4803080;29;20023;-75
2022/06/16 07:23:56;;;;;;;12.20;6.57;;;;;;;24.80;54.01;92918.91;4804425;29;20051;-74
2022/06/16 07:26:22;;;;;;;12.50;7.00;;;;;;;24.21;55.49;92907.81;4804384;29;20059;-75
2022/06/16 07:28:48;;;;;;;12.00;6.22;;;;;;;24.37;55.20;92918.34;4773331;29;20027;-75
2022/06/16 07:31:14;;;;;;;9.38;6.20;;;;;;;24.68;54.83;92905.78;4803459;29;20099;-75
2022/06/16 07:33:40;;;;;;;17.15;6.00;;;;;;;24.73;55.32;92911.56;4804262;29;20047;-74
2022/06/16 07:36:08;;;;;;;15.00;6.32;;;;;;;25.02;53.70;92913.81;4803049;29;20026;-75
2022/06/16 07:38:34;;;;;;;15.65;7.15;;;;;;;24.34;54.40;92910.28;4803380;29;20043;-75
2022/06/16 07:43:43;;;;;;;13.18;6.65;;;;;;;23.70;57.65;92902.84;4804144;29;20100;-75
2022/06/16 07:46:09;;;;;;;17.73;6.72;;;;;;;23.54;59.10;92913.66;4804168;29;20031;-75
2022/06/16 07:48:35;;;;;;;11.13;7.00;;;;;;;23.49;60.35;92903.28;4804480;29;20038;-75
2022/06/16 07:51:01;;;;;;;13.52;6.70;;;;;;;23.52;60.88;92896.44;4804868;29;20042;-75
2022/06/16 07:53:26;;;;;;;15.00;7.63;;;;;;;23.31;61.32;92886.94;4803187;29;20062;-76
2022/06/16 07:55:53;;;;;;;13.40;6.78;;;;;;;23.36;61.46;92893.88;4788477;29;20525;-75
2022/06/16 07:58:19;;;;;;;13.73;6.88;;;;;;;23.12;61.20;92895.75;4760139;29;20114;-74
2022/06/16 08:00:45;;;;;;;11.18;7.15;;;;;;;23.03;62.08;92892.53;4803714;29;20067;-75
2022/06/16 08:03:10;;;;;;;16.20;7.32;;;;;;;23.37;61.12;92884.72;4806778;29;20054;-75
2022/06/16 08:05:36;;;;;;;12.88;6.65;;;;;;;23.97;59.71;92876.16;4804130;29;20047;-75
2022/06/16 08:08:02;;;;;;;14.18;6.88;;;;;;;24.00;58.07;92872.75;4788177;29;20405;-75
2022/06/16 08:10:33;;;;;;;12.75;7.03;;;;;;;24.08;57.94;92863.69;4804148;29;20494;-75
2022/06/16 08:12:58;;;;;;;14.13;6.68;;;;;;;24.11;58.08;92862.97;4803971;29;20501;-75
2022/06/16 08:15:25;;;;;;;11.90;6.65;;;;;;;24.05;58.05;92867.88;4803883;29;20046;-75
2022/06/16 08:17:53;;;;;;;14.05;6.65;;;;;;;24.33;56.86;92857.91;4803991;29;20089;-75
2022/06/16 08:20:19;;;;;;;13.38;6.53;;;;;;;24.12;57.57;92861.09;4803891;29;20042;-75
2022/06/16 08:22:45;;;;;;;17.73;7.07;;;;;;;24.03;57.18;92856.00;4804385;29;20039;-75
2022/06/16 08:25:12;;;;;;;14.73;6.32;;;;;;;24.05;57.83;92857.19;4803002;29;20452;-75
2022/06/16 08:27:40;;;;;;;12.70;6.55;;;;;;;24.22;56.41;92861.22;4787726;29;20509;-75
2022/06/16 08:30:09;;;;;;;12.80;6.45;;;;;;;24.07;57.59;92867.50;4804046;29;20422;-75
2022/06/16 08:32:36;;;;;;;15.40;7.03;;;;;;;24.08;56.89;92869.81;4804217;29;20361;-75
2022/06/16 08:35:02;;;;;;;9.70;6.38;;;;;;;23.80;58.14;92870.19;4772685;29;20150;-75
2022/06/16 08:37:28;;;;;;;12.75;7.10;;;;;;;23.89;56.99;92867.28;4803886;29;20039;-75
2022/06/16 08:39:54;;;;;;;14.57;6.82;;;;;;;24.19;57.12;92867.28;4802570;29;20427;-75
2022/06/16 08:42:47;;;;;;;16.08;6.60;;;;;;;24.37;56.16;92866.75;4787627;29;20054;-75
2022/06/16 08:45:34;;;;;;;15.75;6.72;;;;;;;24.58;55.60;92885.00;4778874;29;20080;-75
2022/06/16 08:48:33;;;;;;;13.02;6.43;;;;;;;24.51;56.62;92885.69;4803661;29;20597;-75
2022/06/16 08:51:33;;;;;;;14.27;6.65;;;;;;;24.27;55.69;92876.97;4803736;29;20038;-75
2022/06/16 08:54:04;;;;;;;16.10;6.50;;;;;;;24.24;57.22;92882.25;4803442;29;20045;-74
2022/06/16 08:56:36;;;;;;;11.90;6.90;;;;;;;24.18;56.15;92894.38;4787830;29;20051;-75
2022/06/16 08:59:34;;;;;;;12.23;6.45;;;;;;;24.45;57.08;92898.59;4802543;29;20066;-75
2022/06/16 09:02:22;;;;;;;11.82;6.30;;;;;;;24.58;57.11;92898.38;4803524;29;20082;-75
2022/06/16 09:04:51;;;;;;;11.88;6.88;;;;;;;24.62;55.27;92896.53;4787356;29;20046;-75
2022/06/16 09:07:44;;;;;;;13.95;6.93;;;;;;;24.73;55.79;92892.84;4787303;29;20046;-75
2022/06/16 09:10:26;;;;;;;16.13;7.07;;;;;;;24.55;56.60;92891.09;4787415;29;20039;-75
2022/06/16 09:13:16;;;;;;;15.27;6.80;;;;;;;24.29;57.54;92900.66;4787970;29;20107;-75
2022/06/16 09:16:00;;;;;;;14.43;6.95;;;;;;;24.28;56.97;92905.25;4807087;29;20490;-75
2022/06/16 09:18:51;;;;;;;17.00;7.45;;;;;;;24.22;57.01;92892.53;4806798;29;20123;-75
2022/06/16 09:21:26;;;;;;;13.20;6.43;;;;;;;24.63;54.75;92906.09;4790730;29;20035;-75
2022/06/16 09:24:25;;;;;;;15.75;6.18;;;;;;;25.16;53.57;92902.47;4806595;29;20110;-75
2022/06/16 09:26:53;;;;;;;12.27;6.43;;;;;;;25.56;52.67;92899.06;4790377;29;20106;-75
2022/06/16 09:29:34;;;;;;;18.67;7.07;;;;;;;25.49;50.82;92889.03;4790230;29;20030;-75
2022/06/16 09:32:22;;;;;;;14.07;7.00;;;;;;;25.40;54.27;92896.63;4790345;29;20541;-75
2022/06/16 09:34:58;;;;;;;13.40;6.88;;;;;;;25.47;53.23;92902.03;4806495;29;20050;-75
2022/06/16 09:37:38;;;;;;;11.68;6.43;;;;;;;25.65;52.21;92896.84;4806670;29;20335;-75
2022/06/16 09:40:15;;;;;;;11.07;6.20;;;;;;;25.96;51.20;92908.97;4806642;29;20536;-75
2022/06/16 09:42:45;;;;;;;9.75;5.82;;;;;;;26.13;47.62;92909.47;4806568;29;20027;-75
2022/06/16 09:45:18;;;;;;;11.80;5.45;;;;;;;26.31;46.97;92904.22;4806131;29;20497;-75
2022/06/16 09:47:51;;;;;;;15.05;6.57;;;;;;;26.64;48.85;92900.56;4806927;29;20187;-75
2022/06/16 09:50:52;;;;;;;12.80;6.78;;;;;;;26.35;49.44;92900.41;4792495;29;20046;-74
2022/06/16 09:53:40;;;;;;;12.68;6.50;;;;;;;26.17;51.25;92900.28;4791373;29;20046;-75
2022/06/16 09:56:11;;;;;;;10.07;6.60;;;;;;;26.14;51.30;92902.94;4789941;29;20049;-74
2022/06/16 09:58:57;;;;;;;12.43;7.20;;;;;;;25.61;52.38;92908.66;4806389;29;20445;-74
2022/06/16 10:01:27;;;;;;;18.48;7.00;;;;;;;25.80;51.84;92896.94;4803609;29;20047;-75
2022/06/16 10:03:58;;;;;;;10.65;6.63;;;;;;;26.00;51.57;92895.56;4806023;29;20126;-75
2022/06/16 10:06:35;;;;;;;11.93;6.55;;;;;;;26.17;50.44;92897.63;4805943;29;20049;-75
2022/06/16 10:09:23;;;;;;;14.40;7.07;;;;;;;26.06;51.64;92904.06;4806110;29;20066;-74
2022/06/16 10:12:19;;;;;;;14.63;6.70;;;;;;;26.04;52.64;92900.97;4804498;29;20039;-74
2022/06/16 10:15:16;;;;;;;18.65;6.80;;;;;;;26.03;49.95;92902.09;4805888;29;20034;-75
2022/06/16 10:17:46;;;;;;;10.68;6.20;;;;;;;25.92;50.38;92907.41;4805931;29;20049;-75
2022/06/16 10:20:14;;;;;;;11.93;6.95;;;;;;;25.75;48.97;92909.53;4805640;29;20062;-75
2022/06/16 10:22:45;;;;;;;11.43;6.20;;;;;;;25.86;49.28;92909.63;4804438;29;20054;-75
2022/06/16 10:25:26;;;;;;;11.20;5.47;;;;;;;26.06;47.96;92915.56;4804235;29;20594;-75
2022/06/16 10:27:58;;;;;;;9.70;5.82;;;;;;;25.94;48.35;92908.56;4805585;29;20364;-75
2022/06/16 10:30:34;;;;;;;13.88;5.82;;;;;;;26.12;46.90;92910.59;4804632;29;20041;-75
2022/06/16 10:33:09;;;;;;;16.27;6.32;;;;;;;26.15;48.48;92912.53;4804280;29;20050;-75
2022/06/16 10:35:36;;;;;;;11.50;6.43;;;;;;;26.15;46.94;92916.00;4803961;29;20046;-75
2022/06/16 10:38:02;;;;;;;13.52;5.78;;;;;;;26.41;47.69;92902.72;4805290;29;20038;-75
2022/06/16 10:40:30;;;;;;;11.55;6.05;;;;;;;26.48;46.06;92910.81;4805335;29;20424;-75
2022/06/16 10:43:05;;;;;;;10.50;5.93;;;;;;;26.60;46.42;92909.75;4804025;29;20043;-75
2022/06/16 10:45:34;;;;;;;12.52;5.97;;;;;;;26.82;46.67;92916.75;4805089;29;20405;-75
2022/06/16 10:48:08;;;;;;;17.85;6.18;;;;;;;27.06;46.92;92917.97;4805206;29;20063;-75
2022/06/16 10:50:38;;;;;;;10.32;5.95;;;;;;;27.08;47.45;92909.56;4805164;29;20557;-75
2022/06/16 10:53:19;;;;;;;12.10;5.93;;;;;;;27.07;46.71;92900.72;4804995;29;20099;-75
2022/06/16 10:55:46;;;;;;;13.95;6.18;;;;;;;26.91;45.38;92903.00;4805121;29;20520;-75
2022/06/16 10:58:23;;;;;;;12.60;6.00;;;;;;;26.81;46.12;92892.97;4804887;29;20410;-75
2022/06/16 11:01:01;;;;;;;14.00;5.80;;;;;;;26.84;45.39;92897.56;4804717;29;20053;-75
2022/06/16 11:03:26;;;;;;;11.27;6.03;;;;;;;26.79;45.84;92899.50;4788789;29;20043;-74
2022/06/16 11:05:55;;;;;;;11.93;5.43;;;;;;;26.89;47.25;92894.53;4773573;29;20069;-74
2022/06/16 11:08:30;;;;;;;9.75;5.13;;;;;;;27.13;45.30;92901.91;4804586;29;20575;-74
2022/06/16 11:10:58;;;;;;;15.65;6.13;;;;;;;27.32;45.48;92900.81;4803336;29;20046;-74
2022/06/16 11:13:34;;;;;;;12.18;5.65;;;;;;;27.07;43.43;92899.97;4804558;29;20045;-76
2022/06/16 11:16:10;;;;;;;8.73;5.20;;;;;;;26.90;44.49;92902.19;4803752;29;20438;-76
2022/06/16 11:18:37;;;;;;;9.43;5.40;;;;;;;26.82;44.13;92902.53;4804983;29;20410;-74
2022/06/16 11:21:15;;;;;;;10.75;6.30;;;;;;;26.79;43.59;92904.88;4804507;29;20039;-74
2022/06/16 11:23:47;;;;;;;14.05;5.57;;;;;;;27.00;45.44;92906.84;4788121;29;20099;-74
2022/06/16 11:26:28;;;;;;;;;;;;;;;26.90;44.12;92896.81;4803845;29;20031;-74
2022/06/16 11:29:21;;;;;;;8.50;5.20;;;;;;;27.00;44.70;92900.72;4804874;29;19917;-74
2022/06/16 11:32:00;;;;;;;13.77;5.97;;;;;;;27.04;44.83;92901.47;4780819;29;20047;-74
2022/06/16 11:34:32;;;;;;;9.45;5.57;;;;;;;27.10;44.38;92902.66;4804216;29;20038;-74
2022/06/16 11:37:07;;;;;;;12.48;6.07;;;;;;;27.11;44.61;92900.72;4787765;29;20092;-75
2022/06/16 11:39:55;;;;;;;12.00;5.47;;;;;;;27.16;44.33;92903.81;4804572;29;20039;-75
2022/06/16 11:42:29;;;;;;;9.73;6.10;;;;;;;27.26;44.25;92893.50;4804380;29;20050;-75
2022/06/16 11:45:10;;;;;;;15.27;5.97;;;;;;;27.53;43.73;92888.53;4804485;29;20494;-75
2022/06/16 11:47:53;;;;;;;12.00;5.18;;;;;;;27.49;44.01;92885.84;4804364;29;20062;-75
2022/06/16 11:50:40;;;;;;;12.25;5.93;;;;;;;27.58;43.85;92878.19;4804177;29;20066;-75
2022/06/16 11:53:38;;;;;;;12.57;5.63;;;;;;;27.16;42.88;92876.94;4804000;29;20174;-76
2022/06/16 11:56:24;;;;;;;10.93;5.88;;;;;;;27.18;42.58;92877.34;4787671;29;20050;-75
2022/06/16 11:59:05;;;;;;;11.60;6.35;;;;;;;27.47;43.25;92882.78;4802845;29;20043;-75
2022/06/16 12:01:48;;;;;;;14.27;6.20;;;;;;;27.72;42.97;92873.94;4804039;29;20063;-75
2022/06/16 12:04:29;;;;;;;16.83;6.18;;;;;;;27.47;43.64;92880.09;4802531;29;20038;-75
2022/06/16 12:07:13;;;;;;;12.93;6.25;;;;;;;27.48;44.19;92878.19;4787972;29;20047;-76
2022/06/16 12:09:41;;;;;;;13.20;5.63;;;;;;;27.59;44.57;92868.97;4787864;29;20043;-75
2022/06/16 12:12:20;;;;;;;14.57;6.25;;;;;;;27.59;44.69;92877.03;4802568;29;20080;-75
2022/06/16 12:15:33;;;;;;;11.15;6.07;;;;;;;27.55;44.52;92873.56;4803892;29;20055;-75